Time;durP1;ratioP1;P1;durP2;ratioP2;P2;SDS_P1;SDS_P2;PMS_P1;PMS_P2;Temp;Humidity;BMP_temperature;BMP_pressure;BME280_temperature;BME280_humidity;BME280_pressure;Samples;Min_cycle;Max_cycle;Signal;HPM_P1;HPM_P2
2022/01/13 00:00:11;;;;;;;90.40;23.07;;;;;;;3.20;100.00;102859.81;7400801;19;20498;-46
2022/01/13 00:02:40;;;;;;;75.53;20.43;;;;;;;3.16;100.00;102853.50;7401594;19;20443;-48
2022/01/13 00:05:11;;;;;;;72.60;17.93;;;;;;;3.19;100.00;102858.03;7390239;19;20421;-45
2022/01/13 00:07:40;;;;;;;75.23;17.70;;;;;;;3.23;100.00;102855.06;7388997;19;20411;-46
2022/01/13 00:10:11;;;;;;;71.67;19.40;;;;;;;3.21;100.00;102848.88;7385669;19;20471;-49
2022/01/13 00:12:43;;;;;;;88.27;18.53;;;;;;;3.20;100.00;102840.31;7389235;19;20506;-46
2022/01/13 00:15:37;;;;;;;65.33;14.23;;;;;;;3.20;100.00;102850.53;7397427;19;20832;-46
2022/01/13 00:18:13;;;;;;;53.53;12.57;;;;;;;3.26;100.00;102834.03;7392662;19;20411;-49
2022/01/13 00:21:13;;;;;;;74.13;18.80;;;;;;;3.29;100.00;102842.03;7388842;19;20419;-47
2022/01/13 00:23:46;;;;;;;67.83;15.27;;;;;;;3.28;100.00;102828.34;7396422;19;20415;-46
2022/01/13 00:26:20;;;;;;;79.90;18.97;;;;;;;3.27;100.00;102846.97;7396358;19;20618;-46
2022/01/13 00:28:53;;;;;;;79.87;18.27;;;;;;;3.31;100.00;102844.00;7390992;19;20432;-48
2022/01/13 00:31:30;;;;;;;81.80;21.10;;;;;;;3.34;100.00;102854.50;7400725;19;20670;-44
2022/01/13 00:34:02;;;;;;;81.37;19.13;;;;;;;3.35;100.00;102847.78;7397228;19;20417;-48
2022/01/13 00:36:34;;;;;;;60.43;16.30;;;;;;;3.34;100.00;102849.41;7400675;19;20487;-47
2022/01/13 00:39:03;;;;;;;97.80;23.03;;;;;;;3.41;100.00;102857.72;7394388;19;20411;-47
2022/01/13 00:41:33;;;;;;;96.70;22.90;;;;;;;3.44;100.00;102850.38;7398530;19;20392;-48
2022/01/13 00:44:05;;;;;;;122.80;23.10;;;;;;;3.47;100.00;102855.78;7397023;19;20434;-47
2022/01/13 00:46:43;;;;;;;133.73;21.40;;;;;;;3.42;100.00;102852.78;7398776;19;20388;-46
2022/01/13 00:49:16;;;;;;;124.60;22.27;;;;;;;3.43;100.00;102858.78;7397448;19;20460;-45
2022/01/13 00:51:47;;;;;;;81.43;19.70;;;;;;;3.47;100.00;102858.34;7403173;19;20852;-48
2022/01/13 00:54:17;;;;;;;72.63;16.27;;;;;;;3.43;100.00;102853.69;7397510;19;20503;-50
2022/01/13 00:56:46;;;;;;;94.60;19.37;;;;;;;3.45;100.00;102855.66;7399681;19;20439;-47
2022/01/13 00:59:17;;;;;;;82.07;19.20;;;;;;;3.44;100.00;102841.06;7397365;19;20522;-47
2022/01/13 01:01:52;;;;;;;102.63;22.97;;;;;;;3.51;100.00;102848.66;7400091;19;20392;-46
2022/01/13 01:04:23;;;;;;;63.57;14.87;;;;;;;3.47;100.00;102837.94;7399155;19;20466;-44
2022/01/13 01:06:54;;;;;;;69.97;15.03;;;;;;;3.46;100.00;102828.47;7402416;19;20391;-44
2022/01/13 01:09:36;;;;;;;82.33;19.87;;;;;;;3.48;100.00;102812.56;7392725;19;20473;-45
2022/01/13 01:12:06;;;;;;;100.27;21.60;;;;;;;3.53;100.00;102809.59;7399673;19;20384;-45
2022/01/13 01:14:40;;;;;;;73.30;16.53;;;;;;;3.53;100.00;102810.47;7396420;19;20459;-45
2022/01/13 01:17:14;;;;;;;77.67;15.20;;;;;;;3.52;100.00;102803.56;7398698;19;20422;-45
2022/01/13 01:19:45;;;;;;;102.27;16.43;;;;;;;3.54;100.00;102806.31;7392046;19;20421;-47
2022/01/13 01:25:07;;;;;;;204.20;27.20;;;;;;;3.60;100.00;102802.72;7395423;19;20419;-45
2022/01/13 01:27:40;;;;;;;90.67;18.70;;;;;;;3.62;100.00;102790.09;7396840;19;20410;-44
2022/01/13 01:30:21;;;;;;;88.67;19.80;;;;;;;3.60;100.00;102797.59;7399846;19;20440;-44
2022/01/13 01:32:53;;;;;;;139.07;22.13;;;;;;;3.61;100.00;102790.88;7395658;19;20379;-45
2022/01/13 01:35:26;;;;;;;155.43;26.23;;;;;;;3.61;100.00;102794.34;7400491;19;20448;-46
2022/01/13 01:37:56;;;;;;;107.77;23.93;;;;;;;3.65;100.00;102791.31;7394544;19;20380;-48
2022/01/13 01:40:25;;;;;;;114.77;22.23;;;;;;;3.63;100.00;102780.06;7398773;19;20395;-48
2022/01/13 01:42:55;;;;;;;143.20;27.20;;;;;;;3.71;100.00;102793.63;7394188;19;20451;-45
2022/01/13 01:45:31;;;;;;;111.00;19.53;;;;;;;3.77;100.00;102785.69;7398183;19;20388;-49
2022/01/13 01:48:04;;;;;;;103.50;21.67;;;;;;;3.70;100.00;102786.69;7392638;19;20707;-47
2022/01/13 01:50:37;;;;;;;70.17;15.50;;;;;;;3.67;100.00;102778.72;7402505;19;20670;-45
2022/01/13 01:53:07;;;;;;;78.43;18.47;;;;;;;3.69;100.00;102781.44;7395642;19;20412;-45
2022/01/13 01:55:37;;;;;;;131.90;22.90;;;;;;;3.68;100.00;102772.88;7405901;19;20720;-46
2022/01/13 01:58:08;;;;;;;117.50;23.27;;;;;;;3.74;100.00;102775.16;7401006;19;20502;-49
2022/01/13 02:00:38;;;;;;;103.43;22.20;;;;;;;3.70;100.00;102771.38;7405673;19;20391;-45
2022/01/13 02:03:10;;;;;;;118.77;25.20;;;;;;;3.76;100.00;102769.44;7401825;19;20432;-47
2022/01/13 02:05:40;;;;;;;107.00;22.80;;;;;;;3.76;100.00;102763.44;7406547;19;20400;-45
2022/01/13 02:08:09;;;;;;;79.53;18.50;;;;;;;3.80;100.00;102763.03;7396412;19;20897;-49
2022/01/13 02:10:39;;;;;;;88.20;16.27;;;;;;;3.81;100.00;102761.34;7401606;19;20463;-46
2022/01/13 02:13:12;;;;;;;96.53;21.13;;;;;;;3.81;100.00;102759.72;7396583;19;20413;-45
2022/01/13 02:16:00;;;;;;;109.37;24.83;;;;;;;3.93;100.00;102752.38;7405580;19;20395;-49
2022/01/13 02:18:35;;;;;;;62.07;15.80;;;;;;;3.84;100.00;102762.56;7400348;19;20407;-45
2022/01/13 02:21:08;;;;;;;127.73;25.03;;;;;;;3.90;100.00;102755.53;7407091;19;20391;-46
2022/01/13 02:23:39;;;;;;;105.37;20.87;;;;;;;3.92;100.00;102751.50;7404872;19;20431;-49
2022/01/13 02:26:10;;;;;;;52.53;14.50;;;;;;;3.82;100.00;102748.75;7408950;19;20455;-45
2022/01/13 02:28:41;;;;;;;92.43;15.47;;;;;;;3.81;100.00;102736.72;7403682;19;20446;-45
2022/01/13 02:31:10;;;;;;;126.33;26.70;;;;;;;3.86;100.00;102729.53;7408024;19;20995;-48
2022/01/13 02:33:40;;;;;;;98.10;17.70;;;;;;;3.94;100.00;102737.97;7401103;19;20407;-52
2022/01/13 02:36:12;;;;;;;95.50;22.77;;;;;;;3.95;100.00;102749.97;7404003;19;20422;-43
2022/01/13 02:38:42;;;;;;;88.10;23.03;;;;;;;3.98;100.00;102752.84;7400635;19;20453;-46
2022/01/13 02:41:11;;;;;;;89.43;22.90;;;;;;;3.99;100.00;102749.56;7404435;19;20395;-44
2022/01/13 02:43:41;;;;;;;71.90;18.10;;;;;;;3.97;100.00;102753.59;7400717;19;20451;-46
2022/01/13 02:46:30;;;;;;;78.57;19.33;;;;;;;3.96;100.00;102749.22;7404425;19;20451;-43
2022/01/13 02:49:00;;;;;;;118.50;23.83;;;;;;;3.97;100.00;102744.28;7398580;19;20920;-48
2022/01/13 02:51:32;;;;;;;73.20;19.10;;;;;;;3.99;100.00;102744.44;7405352;19;20400;-45
2022/01/13 02:54:02;;;;;;;97.33;21.63;;;;;;;3.92;100.00;102741.28;7400569;19;20411;-46
2022/01/13 02:56:32;;;;;;;81.80;20.70;;;;;;;3.99;100.00;102747.00;7404045;19;20455;-45
2022/01/13 02:59:01;;;;;;;81.77;19.10;;;;;;;3.94;100.00;102738.84;7397535;19;20709;-46
2022/01/13 03:01:31;;;;;;;110.00;23.10;;;;;;;3.93;100.00;102734.50;7403941;19;20392;-45
2022/01/13 03:04:05;;;;;;;75.10;20.53;;;;;;;3.91;100.00;102719.00;7400346;19;20414;-48
2022/01/13 03:06:40;;;;;;;52.73;13.30;;;;;;;3.90;100.00;102722.31;7403025;19;20406;-44
2022/01/13 03:09:13;;;;;;;70.10;19.20;;;;;;;3.95;100.00;102714.22;7400070;19;20895;-47
2022/01/13 03:11:44;;;;;;;50.47;14.57;;;;;;;3.94;100.00;102709.88;7403446;19;20412;-45
2022/01/13 03:14:14;;;;;;;69.33;16.77;;;;;;;3.98;100.00;102714.50;7399925;19;20419;-49
2022/01/13 03:16:45;;;;;;;65.20;17.57;;;;;;;3.94;100.00;102712.41;7403312;19;20392;-47
2022/01/13 03:19:15;;;;;;;46.60;13.47;;;;;;;3.95;100.00;102714.22;7398251;19;20527;-50
2022/01/13 03:21:47;;;;;;;78.30;19.60;;;;;;;4.00;100.00;102723.25;7402472;19;20388;-47
2022/01/13 03:24:17;;;;;;;79.60;21.90;;;;;;;4.00;100.00;102729.25;7399956;19;20663;-45
2022/01/13 03:26:49;;;;;;;105.23;23.90;;;;;;;3.99;100.00;102727.44;7403262;19;20384;-47
2022/01/13 03:29:21;;;;;;;87.37;22.23;;;;;;;4.01;100.00;102740.38;7400018;19;20581;-46
2022/01/13 03:31:51;;;;;;;86.87;20.47;;;;;;;3.99;100.00;102745.31;7404862;19;20451;-45
2022/01/13 03:34:20;;;;;;;84.33;20.27;;;;;;;4.02;100.00;102742.19;7399478;19;20421;-46
2022/01/13 03:36:53;;;;;;;94.57;21.23;;;;;;;4.02;100.00;102748.22;7403339;19;20391;-47
2022/01/13 03:39:22;;;;;;;100.47;22.20;;;;;;;4.04;100.00;102735.56;7396860;19;20446;-45
2022/01/13 03:41:52;;;;;;;95.80;24.53;;;;;;;4.06;100.00;102744.31;7402452;19;20391;-46
2022/01/13 03:44:27;;;;;;;80.33;22.30;;;;;;;4.05;100.00;102739.91;7398268;19;20883;-46
2022/01/13 03:46:59;;;;;;;99.27;23.40;;;;;;;4.02;100.00;102747.28;7402906;19;20412;-52
2022/01/13 03:49:29;;;;;;;91.80;20.50;;;;;;;4.03;100.00;102742.34;7395004;19;20421;-46
2022/01/13 03:52:34;;;;;;;82.23;21.57;;;;;;;4.01;100.00;102735.28;7402302;19;20416;-50
2022/01/13 03:55:38;;;;;;;98.60;21.70;;;;;;;4.03;100.00;102728.66;7401045;19;20421;-47
2022/01/13 03:58:40;;;;;;;84.80;22.20;;;;;;;4.05;100.00;102712.72;7396257;19;20490;-52
2022/01/13 04:01:48;;;;;;;53.50;13.43;;;;;;;4.02;100.00;102714.09;7401695;19;20391;-50
2022/01/13 04:04:21;;;;;;;86.93;20.37;;;;;;;4.04;100.00;102705.81;7398356;19;20418;-45
2022/01/13 04:06:50;;;;;;;88.53;19.87;;;;;;;4.03;100.00;102715.88;7401614;19;20392;-48
2022/01/13 04:09:47;;;;;;;43.90;14.40;;;;;;;3.99;100.00;102711.25;7395025;19;20423;-49
2022/01/13 04:12:19;;;;;;;111.10;26.07;;;;;;;4.04;100.00;102705.81;7401634;19;20380;-48
2022/01/13 04:15:00;;;;;;;84.87;18.63;;;;;;;4.03;100.00;102703.09;7401270;19;20447;-50
2022/01/13 04:17:31;;;;;;;82.50;21.87;;;;;;;4.08;100.00;102706.13;7400366;19;20443;-46
2022/01/13 04:20:03;;;;;;;73.20;19.27;;;;;;;4.06;100.00;102700.88;7394893;19;20528;-46
2022/01/13 04:22:32;;;;;;;59.93;16.87;;;;;;;4.06;100.00;102713.66;7401020;19;20392;-45
2022/01/13 04:25:02;;;;;;;80.20;18.23;;;;;;;4.06;100.00;102716.19;7397609;19;20869;-46
2022/01/13 04:27:37;;;;;;;95.43;24.90;;;;;;;4.09;100.00;102705.38;7392945;19;20386;-45
2022/01/13 04:30:34;;;;;;;66.47;19.10;;;;;;;4.05;100.00;102716.94;7397554;19;20418;-47
2022/01/13 04:33:05;;;;;;;94.93;21.90;;;;;;;4.07;100.00;102719.63;7397114;19;20419;-46
2022/01/13 04:35:37;;;;;;;96.93;25.57;;;;;;;4.12;100.00;102706.59;7403786;19;20396;-47
2022/01/13 04:38:06;;;;;;;78.40;21.10;;;;;;;4.06;100.00;102718.75;7399862;19;20486;-48
2022/01/13 04:40:43;;;;;;;82.07;24.77;;;;;;;4.06;100.00;102705.97;7404654;19;20391;-47
2022/01/13 04:43:14;;;;;;;58.20;15.47;;;;;;;4.05;100.00;102697.41;7399507;19;20494;-46
2022/01/13 04:45:43;;;;;;;59.13;17.47;;;;;;;4.08;100.00;102694.25;7404017;19;20391;-46
2022/01/13 04:48:13;;;;;;;77.77;18.50;;;;;;;4.09;100.00;102688.38;7399053;19;20434;-46
2022/01/13 04:50:46;;;;;;;44.37;13.73;;;;;;;4.03;100.00;102698.91;7403922;19;20387;-43
2022/01/13 04:53:16;;;;;;;86.23;23.47;;;;;;;4.08;100.00;102695.91;7395817;19;20403;-46
2022/01/13 04:55:50;;;;;;;52.63;10.77;;;;;;;4.02;100.00;102691.09;7399639;19;20443;-47
2022/01/13 04:58:21;;;;;;;63.40;16.97;;;;;;;4.06;100.00;102688.09;7392332;19;20426;-46
2022/01/13 05:00:51;;;;;;;79.20;18.67;;;;;;;4.06;100.00;102688.09;7400039;19;20380;-44
2022/01/13 05:03:21;;;;;;;52.07;14.27;;;;;;;4.03;100.00;102672.44;7392953;19;20428;-45
2022/01/13 05:05:53;;;;;;;84.67;24.10;;;;;;;4.07;100.00;102687.34;7399525;19;20384;-49
2022/01/13 05:08:23;;;;;;;70.70;18.27;;;;;;;4.04;100.00;102687.94;7394726;19;20995;-43
2022/01/13 05:10:52;;;;;;;78.40;18.90;;;;;;;4.06;100.00;102685.53;7399797;19;20390;-46
2022/01/13 05:13:21;;;;;;;75.50;20.00;;;;;;;4.10;100.00;102695.28;7395574;19;20415;-44
2022/01/13 05:15:53;;;;;;;110.57;25.70;;;;;;;4.09;100.00;102682.41;7398877;19;20388;-47
2022/01/13 05:18:30;;;;;;;94.23;19.13;;;;;;;4.02;100.00;102676.69;7394752;19;20454;-46
2022/01/13 05:21:05;;;;;;;63.43;15.40;;;;;;;4.01;100.00;102676.53;7398829;19;20387;-44
2022/01/13 05:23:35;;;;;;;56.90;15.10;;;;;;;4.02;100.00;102657.88;7397139;19;20409;-48
2022/01/13 05:26:04;;;;;;;83.70;19.80;;;;;;;4.03;100.00;102664.78;7398722;19;20664;-51
2022/01/13 05:28:34;;;;;;;106.73;24.57;;;;;;;4.06;100.00;102660.00;7392682;19;20435;-46
2022/01/13 05:31:03;;;;;;;72.17;20.33;;;;;;;4.02;100.00;102675.75;7398795;19;21220;-47
2022/01/13 05:33:33;;;;;;;89.77;21.97;;;;;;;4.07;100.00;102658.31;7394908;19;20900;-46
2022/01/13 05:36:05;;;;;;;74.13;23.70;;;;;;;4.04;100.00;102664.94;7398594;19;20455;-47
2022/01/13 05:38:35;;;;;;;78.33;20.20;;;;;;;4.04;100.00;102675.16;7393893;19;20431;-46
2022/01/13 05:41:04;;;;;;;88.80;23.00;;;;;;;4.09;100.00;102677.28;7398655;19;20398;-45
2022/01/13 05:43:34;;;;;;;96.70;25.10;;;;;;;4.12;100.00;102681.03;7394534;19;20431;-47
2022/01/13 05:46:03;;;;;;;67.33;17.90;;;;;;;4.12;100.00;102673.38;7398547;19;20398;-47
2022/01/13 05:48:33;;;;;;;93.17;22.47;;;;;;;4.14;100.00;102671.88;7394310;19;20773;-44
2022/01/13 05:51:10;;;;;;;87.07;22.30;;;;;;;4.15;100.00;102668.56;7398174;19;20391;-44
2022/01/13 05:53:40;;;;;;;67.07;20.27;;;;;;;4.21;100.00;102672.47;7395033;19;20514;-47
2022/01/13 05:56:10;;;;;;;72.03;21.83;;;;;;;4.19;100.00;102675.78;7398591;19;20371;-45
2022/01/13 05:58:39;;;;;;;62.10;17.07;;;;;;;4.24;100.00;102663.44;7393692;19;20764;-44
2022/01/13 06:01:08;;;;;;;81.47;24.90;;;;;;;4.29;100.00;102667.38;7398275;19;20675;-45
2022/01/13 06:03:38;;;;;;;104.80;25.63;;;;;;;4.29;100.00;102661.34;7393892;19;20428;-45
2022/01/13 06:06:10;;;;;;;84.23;21.37;;;;;;;4.30;100.00;102653.84;7398257;19;20455;-46
2022/01/13 06:08:40;;;;;;;83.93;22.40;;;;;;;4.36;100.00;102656.06;7392076;19;20532;-47
2022/01/13 06:11:09;;;;;;;77.17;24.17;;;;;;;4.36;100.00;102653.50;7397850;19;20398;-48
2022/01/13 06:13:39;;;;;;;81.17;23.13;;;;;;;4.40;100.00;102654.72;7394324;19;20427;-47
2022/01/13 06:16:08;;;;;;;78.80;22.67;;;;;;;4.41;100.00;102641.22;7397924;19;20464;-43
2022/01/13 06:18:38;;;;;;;61.87;20.97;;;;;;;4.44;100.00;102642.41;7394275;19;20530;-51
2022/01/13 06:21:07;;;;;;;81.33;24.17;;;;;;;4.49;100.00;102635.16;7397598;19;20440;-47
2022/01/13 06:23:39;;;;;;;91.83;24.13;;;;;;;4.46;100.00;102623.00;7392933;19;20403;-45
2022/01/13 06:26:09;;;;;;;50.50;17.03;;;;;;;4.49;100.00;102636.81;7397873;19;20391;-43
2022/01/13 06:28:39;;;;;;;76.90;20.00;;;;;;;4.49;100.00;102629.13;7392539;19;20424;-47
2022/01/13 06:31:09;;;;;;;59.07;15.40;;;;;;;4.48;100.00;102628.25;7397575;19;20649;-47
2022/01/13 06:33:38;;;;;;;59.37;16.67;;;;;;;4.48;100.00;102617.13;7393501;19;20481;-44
2022/01/13 06:36:08;;;;;;;76.40;21.77;;;;;;;4.51;100.00;102632.78;7402074;19;20479;-44
2022/01/13 06:38:40;;;;;;;67.07;21.97;;;;;;;4.53;100.00;102631.25;7392498;19;20407;-48
2022/01/13 06:41:09;;;;;;;68.30;21.90;;;;;;;4.57;100.00;102638.47;7401764;19;20867;-46
2022/01/13 06:43:39;;;;;;;73.13;23.77;;;;;;;4.60;100.00;102638.75;7400047;19;20444;-45
2022/01/13 06:46:08;;;;;;;46.70;17.40;;;;;;;4.58;100.00;102640.28;7404364;19;20391;-49
2022/01/13 06:48:38;;;;;;;77.03;22.27;;;;;;;4.60;100.00;102648.97;7399046;19;20686;-49
2022/01/13 06:51:08;;;;;;;67.00;21.37;;;;;;;4.58;100.00;102651.38;7404122;19;20484;-46
2022/01/13 06:53:40;;;;;;;71.83;23.87;;;;;;;4.61;100.00;102650.78;7400873;19;20491;-45
2022/01/13 06:56:10;;;;;;;75.40;25.03;;;;;;;4.66;100.00;102643.56;7404341;19;20447;-49
2022/01/13 06:58:39;;;;;;;78.77;23.27;;;;;;;4.64;100.00;102640.88;7398762;19;20868;-45
2022/01/13 07:01:09;;;;;;;63.83;18.80;;;;;;;4.64;100.00;102650.19;7403774;19;20396;-47
2022/01/13 07:03:41;;;;;;;76.00;25.87;;;;;;;4.66;100.00;102654.69;7400232;19;20856;-45
2022/01/13 07:06:10;;;;;;;65.80;19.87;;;;;;;4.62;100.00;102657.72;7403915;19;20451;-45
2022/01/13 07:08:42;;;;;;;66.37;21.77;;;;;;;4.64;100.00;102656.19;7398461;19;20465;-48
2022/01/13 07:11:12;;;;;;;70.70;19.90;;;;;;;4.64;100.00;102666.44;7401076;19;20975;-46
2022/01/13 07:13:41;;;;;;;76.50;24.53;;;;;;;4.70;100.00;102672.13;7399579;19;20470;-49
2022/01/13 07:16:11;;;;;;;69.83;24.00;;;;;;;4.69;100.00;102675.47;7403375;19;20467;-49
2022/01/13 07:18:41;;;;;;;62.23;23.07;;;;;;;4.72;100.00;102687.63;7400478;19;20446;-47
2022/01/13 07:21:21;;;;;;;72.40;21.93;;;;;;;4.68;100.00;102688.97;7407262;19;20464;-50
2022/01/13 07:23:53;;;;;;;64.60;24.60;;;;;;;4.70;100.00;102695.16;7397584;19;20419;-48
2022/01/13 07:26:22;;;;;;;69.27;22.97;;;;;;;4.68;100.00;102694.09;7402993;19;20384;-47
2022/01/13 07:28:52;;;;;;;56.47;20.50;;;;;;;4.68;100.00;102694.09;7398364;19;20494;-51
2022/01/13 07:31:27;;;;;;;62.37;20.30;;;;;;;4.69;100.00;102706.16;7402955;19;20722;-49
2022/01/13 07:33:57;;;;;;;63.97;20.13;;;;;;;4.77;100.00;102711.09;7398121;19;20413;-48
2022/01/13 07:36:27;;;;;;;55.77;19.80;;;;;;;4.76;100.00;102714.41;7402979;19;20849;-45
2022/01/13 07:38:59;;;;;;;59.20;22.10;;;;;;;4.75;100.00;102731.41;7396069;19;20497;-49
2022/01/13 07:41:29;;;;;;;68.33;25.17;;;;;;;4.83;100.00;102730.47;7402349;19;20472;-49
2022/01/13 07:43:59;;;;;;;63.00;22.63;;;;;;;4.85;100.00;102728.06;7396254;19;20421;-43
2022/01/13 07:46:29;;;;;;;63.67;22.17;;;;;;;4.81;100.00;102725.97;7402625;19;20375;-49
2022/01/13 07:48:58;;;;;;;72.30;26.27;;;;;;;4.90;100.00;102731.97;7397009;19;20419;-45
2022/01/13 07:51:29;;;;;;;68.50;23.87;;;;;;;4.86;100.00;102735.91;7399556;19;20405;-47
2022/01/13 07:54:01;;;;;;;68.60;21.13;;;;;;;4.77;100.00;102732.44;7400662;19;20412;-45
2022/01/13 07:56:30;;;;;;;55.83;22.50;;;;;;;4.86;100.00;102742.66;7402337;19;20388;-45
2022/01/13 07:59:00;;;;;;;71.23;25.03;;;;;;;4.91;100.00;102749.13;7394172;19;20475;-48
2022/01/13 08:01:30;;;;;;;34.97;13.20;;;;;;;4.76;100.00;102757.88;7401803;19;20404;-45
2022/01/13 08:04:00;;;;;;;60.27;23.17;;;;;;;4.86;100.00;102755.44;7398380;19;20429;-48
2022/01/13 08:06:29;;;;;;;44.93;14.40;;;;;;;4.68;100.00;102755.47;7401737;19;20638;-47
2022/01/13 08:09:01;;;;;;;53.67;17.53;;;;;;;4.66;100.00;102762.09;7395423;19;20452;-48
2022/01/13 08:11:31;;;;;;;66.50;23.70;;;;;;;4.75;100.00;102769.75;7399563;19;20414;-46
2022/01/13 08:14:00;;;;;;;56.13;18.10;;;;;;;4.66;100.00;102769.75;7395701;19;20429;-45
2022/01/13 08:16:34;;;;;;;64.03;19.17;;;;;;;4.64;100.00;102776.38;7401598;19;20447;-45
2022/01/13 08:21:45;;;;;;;55.70;20.43;;;;;;;4.66;100.00;102777.44;7401769;19;20471;-49
2022/01/13 08:24:17;;;;;;;61.53;19.83;;;;;;;4.58;100.00;102775.78;7397656;19;20677;-46
2022/01/13 08:26:47;;;;;;;55.63;21.80;;;;;;;4.59;100.00;102775.03;7401395;19;20451;-45
2022/01/13 08:29:16;;;;;;;46.70;17.07;;;;;;;4.50;100.00;102774.13;7395352;19;20487;-50
2022/01/13 08:31:46;;;;;;;36.83;15.40;;;;;;;4.43;100.00;102776.09;7399022;19;20744;-44
2022/01/13 08:34:16;;;;;;;58.43;21.07;;;;;;;4.41;100.00;102784.34;7397421;19;20427;-48
2022/01/13 08:36:46;;;;;;;62.70;19.17;;;;;;;4.40;100.00;102778.31;7402289;19;20690;-46
2022/01/13 08:39:18;;;;;;;55.30;17.90;;;;;;;4.38;100.00;102790.06;7394666;19;20701;-44
2022/01/13 08:41:48;;;;;;;52.37;18.83;;;;;;;4.36;100.00;102780.44;7400615;19;20452;-48
2022/01/13 08:44:17;;;;;;;61.70;22.40;;;;;;;4.31;100.00;102777.41;7394330;19;20482;-44
2022/01/13 08:46:47;;;;;;;39.27;13.70;;;;;;;4.24;100.00;102763.13;7400661;19;20460;-48
2022/01/13 08:49:16;;;;;;;42.57;14.40;;;;;;;4.17;100.00;102776.91;7393827;19;20441;-44
2022/01/13 08:51:46;;;;;;;57.30;17.57;;;;;;;4.09;100.00;102765.03;7398658;19;20460;-51
2022/01/13 08:54:20;;;;;;;53.80;17.83;;;;;;;4.09;100.00;102774.38;7396082;19;20415;-50
2022/01/13 08:56:53;;;;;;;55.07;18.50;;;;;;;4.08;100.00;102772.53;7400035;19;20418;-44
2022/01/13 08:59:22;;;;;;;45.90;14.20;;;;;;;4.04;100.00;102781.53;7394628;19;20486;-47
2022/01/13 09:01:53;;;;;;;54.63;18.97;;;;;;;4.04;100.00;102786.66;7400026;19;20459;-46
2022/01/13 09:04:22;;;;;;;58.50;19.17;;;;;;;4.05;100.00;102775.69;7392637;19;20434;-47
2022/01/13 09:06:52;;;;;;;58.43;16.67;;;;;;;4.01;100.00;102771.91;7399918;19;20395;-47
2022/01/13 09:09:24;;;;;;;62.07;21.60;;;;;;;3.99;100.00;102762.31;7394087;19;20498;-44
2022/01/13 09:11:54;;;;;;;30.23;10.63;;;;;;;3.98;100.00;102766.53;7398095;19;20387;-46
2022/01/13 09:14:26;;;;;;;40.63;10.33;;;;;;;3.93;100.00;102767.69;7396116;19;20751;-47
2022/01/13 09:16:57;;;;;;;46.50;15.70;;;;;;;3.96;100.00;102756.88;7403292;19;20404;-44
2022/01/13 09:19:27;;;;;;;60.80;17.70;;;;;;;3.97;100.00;102735.69;7394003;19;20437;-45
2022/01/13 09:21:57;;;;;;;64.50;18.77;;;;;;;3.97;100.00;102735.69;7400041;19;20463;-45
2022/01/13 09:24:30;;;;;;;28.80;11.20;;;;;;;3.92;100.00;102741.28;7395872;19;20495;-51
2022/01/13 09:26:59;;;;;;;47.73;14.00;;;;;;;4.00;100.00;102733.47;7399552;19;20387;-44
2022/01/13 09:29:28;;;;;;;42.20;15.37;;;;;;;4.00;100.00;102744.56;7394006;19;20430;-45
2022/01/13 09:31:58;;;;;;;58.70;14.27;;;;;;;3.99;100.00;102736.78;7398589;19;20949;-48
2022/01/13 09:34:28;;;;;;;40.33;11.50;;;;;;;4.00;100.00;102728.38;7395475;19;20411;-49
2022/01/13 09:36:57;;;;;;;34.37;12.83;;;;;;;3.99;100.00;102729.13;7402683;19;20720;-48
2022/01/13 09:39:29;;;;;;;47.80;14.50;;;;;;;4.01;100.00;102731.03;7392459;19;20415;-44
2022/01/13 09:41:59;;;;;;;50.17;15.40;;;;;;;4.06;100.00;102723.88;7399134;19;20402;-45
2022/01/13 09:44:29;;;;;;;43.30;14.07;;;;;;;4.05;100.00;102714.38;7395185;19;20435;-45
2022/01/13 09:46:59;;;;;;;41.47;11.50;;;;;;;4.03;100.00;102718.44;7398939;19;20715;-45
2022/01/13 09:49:29;;;;;;;51.17;16.30;;;;;;;4.10;100.00;102710.63;7394133;19;20423;-48
2022/01/13 09:51:58;;;;;;;49.33;15.73;;;;;;;4.10;100.00;102705.50;7401342;19;20402;-48
2022/01/13 09:54:31;;;;;;;28.33;7.87;;;;;;;4.07;100.00;102707.78;7395416;19;20494;-47
2022/01/13 09:57:00;;;;;;;41.47;12.30;;;;;;;4.07;100.00;102717.09;7398581;19;20460;-47
2022/01/13 09:59:30;;;;;;;52.97;13.80;;;;;;;4.08;100.00;102714.69;7393017;19;20486;-46
2022/01/13 10:01:59;;;;;;;69.30;20.03;;;;;;;4.12;100.00;102716.81;7398467;19;20388;-48
2022/01/13 10:04:45;;;;;;;51.03;13.50;;;;;;;4.18;100.00;102719.97;7394776;19;20419;-50
2022/01/13 10:07:18;;;;;;;41.50;14.27;;;;;;;4.17;100.00;102720.69;7397556;19;20451;-50
2022/01/13 10:10:00;;;;;;;50.57;15.73;;;;;;;4.18;100.00;102725.09;7392460;19;20706;-48
2022/01/13 10:12:36;;;;;;;29.67;10.80;;;;;;;4.16;100.00;102726.56;7396475;19;20909;-47
2022/01/13 10:17:52;;;;;;;39.60;11.87;;;;;;;4.18;100.00;102730.19;7401501;19;20431;-44
2022/01/13 10:20:23;;;;;;;51.17;16.50;;;;;;;4.22;100.00;102726.28;7404589;19;20465;-51
2022/01/13 10:22:53;;;;;;;55.53;17.13;;;;;;;4.24;100.00;102729.88;7402058;19;20482;-44
2022/01/13 10:25:34;;;;;;;68.37;20.63;;;;;;;4.31;100.00;102731.41;7404892;19;20649;-44
2022/01/13 10:28:19;;;;;;;67.03;17.40;;;;;;;4.31;100.00;102732.31;7400592;19;20413;-50
2022/01/13 10:30:50;;;;;;;38.83;13.40;;;;;;;4.32;100.00;102729.00;7404990;19;20903;-48
2022/01/13 10:33:22;;;;;;;56.30;18.13;;;;;;;4.36;100.00;102734.41;7404399;19;20836;-51
2022/01/13 10:35:54;;;;;;;66.60;18.23;;;;;;;4.38;100.00;102731.25;7404345;19;20464;-44
2022/01/13 10:38:24;;;;;;;32.47;10.80;;;;;;;4.37;100.00;102726.91;7399667;19;20881;-44
2022/01/13 10:40:58;;;;;;;50.77;17.23;;;;;;;4.43;100.00;102732.63;7404671;19;20460;-43
2022/01/13 10:43:29;;;;;;;69.13;20.37;;;;;;;4.43;100.00;102726.59;7401032;19;20415;-49
2022/01/13 10:45:59;;;;;;;36.70;12.97;;;;;;;4.39;100.00;102712.63;7404488;19;20391;-48
2022/01/13 10:48:32;;;;;;;63.27;17.60;;;;;;;4.38;100.00;102723.59;7399337;19;20415;-46
2022/01/13 10:51:06;;;;;;;66.73;19.90;;;;;;;4.49;100.00;102721.19;7404159;19;20896;-45
2022/01/13 10:53:38;;;;;;;66.00;19.57;;;;;;;4.76;100.00;102719.53;7400675;19;20414;-45
2022/01/13 10:56:12;;;;;;;75.67;24.00;;;;;;;4.66;100.00;102708.38;7404378;19;20444;-48
2022/01/13 10:58:44;;;;;;;67.37;19.30;;;;;;;4.62;100.00;102705.38;7398960;19;20413;-49
2022/01/13 11:01:15;;;;;;;67.83;24.03;;;;;;;4.64;100.00;102698.75;7404762;19;20412;-49
2022/01/13 11:03:47;;;;;;;50.33;14.00;;;;;;;4.67;100.00;102697.41;7398266;19;20439;-45
2022/01/13 11:06:18;;;;;;;68.53;24.97;;;;;;;4.68;100.00;102701.75;7405732;19;20408;-48
2022/01/13 11:08:50;;;;;;;80.60;22.90;;;;;;;4.73;100.00;102697.13;7399781;19;20447;-45
2022/01/13 11:11:34;;;;;;;59.73;18.90;;;;;;;4.58;100.00;102691.41;7402995;19;20755;-47
2022/01/13 11:14:09;;;;;;;110.93;26.97;;;;;;;4.57;100.00;102692.16;7402788;19;20507;-44
2022/01/13 11:16:39;;;;;;;124.33;32.00;;;;;;;4.61;100.00;102689.13;7403327;19;20406;-50
2022/01/13 11:19:10;;;;;;;53.00;14.67;;;;;;;4.55;100.00;102689.44;7398890;19;20702;-47
2022/01/13 11:21:40;;;;;;;100.30;27.80;;;;;;;4.55;100.00;102696.22;7404270;19;20467;-46
2022/01/13 11:24:10;;;;;;;105.90;31.23;;;;;;;4.62;100.00;102695.16;7399153;19;20414;-47
2022/01/13 11:26:42;;;;;;;91.67;25.97;;;;;;;4.67;100.00;102699.97;7404049;19;20858;-49
2022/01/13 11:29:12;;;;;;;55.90;13.70;;;;;;;4.54;100.00;102704.63;7396760;19;20418;-49
2022/01/13 11:31:42;;;;;;;61.17;18.87;;;;;;;4.64;100.00;102701.31;7402247;19;20451;-49
2022/01/13 11:34:12;;;;;;;51.83;16.80;;;;;;;4.63;100.00;102700.44;7398354;19;20891;-49
2022/01/13 11:36:42;;;;;;;51.97;18.57;;;;;;;4.68;100.00;102700.88;7402326;19;20392;-49
2022/01/13 11:39:11;;;;;;;66.33;18.60;;;;;;;4.68;100.00;102694.09;7398595;19;20944;-48